createdAt,value
2018-06-12T00:01:08.740Z,20.20
2018-06-12T00:03:37.196Z,20.20
2018-06-12T00:06:05.661Z,20.20
2018-06-12T00:08:34.144Z,20.20
2018-06-12T00:11:02.572Z,20.10
2018-06-12T00:13:31.016Z,20.20
2018-06-12T00:15:59.460Z,20.20
2018-06-12T00:18:27.907Z,20.20
2018-06-12T00:20:56.340Z,20.20
2018-06-12T00:23:24.783Z,20.20
2018-06-12T00:25:53.212Z,20.20
2018-06-12T00:28:21.635Z,20.20
2018-06-12T00:30:50.095Z,20.20
2018-06-12T00:33:18.539Z,20.20
2018-06-12T00:35:46.972Z,20.20
2018-06-12T00:38:15.411Z,20.20
2018-06-12T00:40:43.876Z,20.20
2018-06-12T00:43:12.303Z,20.20
2018-06-12T00:45:40.768Z,20.10
2018-06-12T00:48:09.209Z,20.10
2018-06-12T00:50:37.664Z,20.10
2018-06-12T00:53:06.088Z,20.10
2018-06-12T00:55:34.564Z,20.10
2018-06-12T00:58:02.999Z,20.10
2018-06-12T01:00:31.467Z,20.10
2018-06-12T01:02:59.892Z,20.10
2018-06-12T01:05:28.359Z,20.10
2018-06-12T01:07:56.792Z,20.10
2018-06-12T01:10:25.283Z,20.10
2018-06-12T01:12:53.747Z,20.10
2018-06-12T01:15:22.203Z,20.10
2018-06-12T01:17:50.657Z,20.10
2018-06-12T01:20:19.120Z,20.00
2018-06-12T01:22:47.548Z,20.00
2018-06-12T01:25:15.982Z,20.00
2018-06-12T01:27:44.460Z,20.00
2018-06-12T01:30:12.895Z,20.00
2018-06-12T01:32:41.344Z,20.00
2018-06-12T01:35:09.804Z,20.00
2018-06-12T01:37:38.256Z,20.00
2018-06-12T01:40:06.708Z,20.00
2018-06-12T01:42:35.133Z,20.00
2018-06-12T01:45:03.608Z,20.00
2018-06-12T01:47:32.896Z,20.00
2018-06-12T01:50:01.356Z,20.00
2018-06-12T01:52:29.782Z,20.00
2018-06-12T01:54:58.233Z,19.90
2018-06-12T01:57:26.691Z,20.00
2018-06-12T01:59:55.145Z,20.00
2018-06-12T02:02:23.571Z,20.00
2018-06-12T02:04:52.005Z,20.00
2018-06-12T02:07:20.482Z,20.00
2018-06-12T02:09:48.912Z,20.00
2018-06-12T02:12:17.388Z,20.00
2018-06-12T02:14:45.819Z,20.00
2018-06-12T02:17:14.275Z,20.00
2018-06-12T02:19:42.703Z,19.90
2018-06-12T02:22:11.136Z,20.00
2018-06-12T02:24:39.575Z,20.00
2018-06-12T02:27:08.020Z,19.90
2018-06-12T02:29:36.479Z,19.90
2018-06-12T02:32:05.112Z,19.90
2018-06-12T02:37:01.729Z,19.90
2018-06-12T02:39:30.164Z,19.90
2018-06-12T02:41:58.620Z,19.90
2018-06-12T02:46:55.215Z,19.70
2018-06-12T02:49:23.655Z,19.50
2018-06-12T02:54:20.232Z,19.30
2018-06-12T02:56:48.677Z,19.20
2018-06-12T02:59:17.128Z,19.20
2018-06-12T03:01:45.576Z,19.00
2018-06-12T03:04:14.027Z,19.00
2018-06-12T03:06:42.464Z,18.90
2018-06-12T03:09:10.969Z,18.80
2018-06-12T03:11:39.400Z,18.80
2018-06-12T03:14:07.852Z,18.80
2018-06-12T03:19:04.415Z,18.70
2018-06-12T03:24:00.999Z,18.60
2018-06-12T03:26:29.456Z,18.60
2018-06-12T03:28:57.896Z,18.60
2018-06-12T03:31:26.347Z,18.60
2018-06-12T03:33:54.776Z,18.60
2018-06-12T03:36:23.227Z,18.60
2018-06-12T03:38:51.650Z,18.60
2018-06-12T03:43:48.219Z,18.60
2018-06-12T03:46:16.827Z,18.60
2018-06-12T03:48:45.278Z,18.50
2018-06-12T03:53:41.852Z,18.50
2018-06-12T03:56:10.320Z,18.50
2018-06-12T03:58:38.784Z,18.50
2018-06-12T04:03:35.340Z,18.40
2018-06-12T04:08:31.968Z,18.50
2018-06-12T04:11:00.480Z,18.40
2018-06-12T04:15:57.105Z,18.30
2018-06-12T04:18:25.588Z,18.30
2018-06-12T04:20:54.080Z,18.20
2018-06-12T04:23:22.524Z,18.20
2018-06-12T04:25:50.959Z,18.10
2018-06-12T04:28:19.417Z,18.00
2018-06-12T04:30:47.922Z,18.00
2018-06-12T04:35:44.558Z,18.00
2018-06-12T04:38:13.312Z,17.90
2018-06-12T04:40:41.789Z,17.90
2018-06-12T04:43:10.353Z,17.90
2018-06-12T04:45:38.830Z,18.00
2018-06-12T04:48:07.350Z,17.90
2018-06-12T04:50:36.811Z,18.00
2018-06-12T04:55:33.470Z,18.00
2018-06-12T04:58:01.952Z,18.00
2018-06-12T05:02:58.576Z,17.90
2018-06-12T05:05:27.024Z,17.90
2018-06-12T05:07:55.448Z,17.90
2018-06-12T05:10:23.892Z,17.90
2018-06-12T05:12:52.319Z,17.90
2018-06-12T05:17:48.962Z,17.90
2018-06-12T05:20:17.404Z,17.90
2018-06-12T05:22:45.840Z,17.90
2018-06-12T05:25:14.260Z,17.90
2018-06-12T05:27:42.703Z,17.90
2018-06-12T05:30:11.142Z,17.90
2018-06-12T05:32:39.592Z,17.90
2018-06-12T05:35:08.012Z,17.90
2018-06-12T05:37:36.471Z,18.00
2018-06-12T05:40:04.969Z,18.00
2018-06-12T05:42:33.396Z,18.00
2018-06-12T05:45:01.838Z,18.00
2018-06-12T05:47:30.275Z,18.10
2018-06-12T05:49:58.728Z,18.10
2018-06-12T05:52:27.150Z,18.10
2018-06-12T05:54:55.599Z,18.20
2018-06-12T05:57:24.032Z,18.20
2018-06-12T05:59:52.464Z,18.30
2018-06-12T06:02:20.936Z,18.30
2018-06-12T06:07:17.524Z,18.30
2018-06-12T06:09:45.956Z,18.30
2018-06-12T06:12:14.404Z,18.20
2018-06-12T06:14:42.839Z,18.20
2018-06-12T06:19:39.412Z,18.10
2018-06-12T06:22:07.851Z,18.10
2018-06-12T06:24:36.295Z,18.10
2018-06-12T06:27:04.744Z,18.20
2018-06-12T06:29:33.199Z,18.20
2018-06-12T06:32:01.649Z,18.20
2018-06-12T06:34:30.079Z,18.20
2018-06-12T06:39:26.652Z,18.40
2018-06-12T06:41:55.103Z,18.50
2018-06-12T06:46:51.676Z,18.70
2018-06-12T06:51:48.264Z,18.90
2018-06-12T06:54:16.699Z,18.90
2018-06-12T06:56:45.132Z,18.90
2018-06-12T06:59:13.592Z,19.00
2018-06-12T07:01:42.012Z,19.00
2018-06-12T07:04:10.468Z,19.00
2018-06-12T07:06:38.901Z,19.10
2018-06-12T07:11:36.107Z,19.00
2018-06-12T07:14:04.584Z,18.90
2018-06-12T07:16:33.039Z,18.80
2018-06-12T07:21:35.099Z,18.90
2018-06-12T07:24:03.536Z,19.00
2018-06-12T07:26:31.984Z,19.00
2018-06-12T07:29:00.412Z,19.00
2018-06-12T07:31:28.861Z,19.00
2018-06-12T07:33:57.300Z,19.10
2018-06-12T07:36:25.738Z,19.10
2018-06-12T07:38:54.200Z,19.10
2018-06-12T07:41:22.632Z,19.20
2018-06-12T07:43:51.088Z,19.30
2018-06-12T07:46:19.524Z,19.40
2018-06-12T07:51:16.240Z,19.60
2018-06-12T07:53:44.716Z,19.70
2018-06-12T07:56:13.178Z,19.80
2018-06-12T07:58:41.672Z,19.80
2018-06-12T08:01:10.120Z,19.90
2018-06-12T08:03:38.560Z,19.90
2018-06-12T08:06:07.012Z,19.90
2018-06-12T08:08:35.435Z,19.90
2018-06-12T08:11:03.900Z,19.90
2018-06-12T08:13:32.323Z,20.00
2018-06-12T08:16:00.772Z,20.10
2018-06-12T08:18:29.219Z,20.10
2018-06-12T08:20:57.668Z,20.20
2018-06-12T08:23:26.125Z,20.40
2018-06-12T08:25:54.571Z,20.40
2018-06-12T08:28:23.035Z,20.40
2018-06-12T08:30:51.460Z,20.40
2018-06-12T08:33:19.920Z,20.40
2018-06-12T08:38:16.508Z,20.50
2018-06-12T08:40:44.948Z,20.70
2018-06-12T08:43:13.380Z,20.90
2018-06-12T08:45:41.840Z,21.00
2018-06-12T08:50:38.424Z,21.10
2018-06-12T08:53:07.164Z,21.00
2018-06-12T08:55:35.636Z,21.00
2018-06-12T08:58:04.081Z,20.80
2018-06-12T09:00:32.519Z,20.70
2018-06-12T09:03:00.968Z,20.70
2018-06-12T09:05:29.415Z,20.60
2018-06-12T09:07:57.879Z,20.60
2018-06-12T09:10:26.308Z,20.50
2018-06-12T09:12:54.759Z,20.40
2018-06-12T09:15:23.192Z,20.30
2018-06-12T09:17:51.647Z,20.20
2018-06-12T09:20:20.075Z,20.20
2018-06-12T09:25:16.654Z,20.20
2018-06-12T09:27:48.043Z,20.20
2018-06-12T09:35:13.220Z,20.30
2018-06-12T09:37:41.683Z,20.40
2018-06-12T09:40:10.124Z,20.40
2018-06-12T09:42:38.584Z,20.50
2018-06-12T09:45:07.068Z,20.60
2018-06-12T09:47:35.528Z,20.60
2018-06-12T09:52:32.131Z,20.60
2018-06-12T09:55:00.567Z,20.50
2018-06-12T09:59:57.135Z,20.50
2018-06-12T10:02:25.564Z,20.60
2018-06-12T10:04:54.020Z,20.60
2018-06-12T10:07:22.449Z,20.60
2018-06-12T10:12:19.024Z,20.80
2018-06-12T10:14:47.478Z,21.10
2018-06-12T10:17:15.924Z,21.50
2018-06-12T10:19:44.348Z,22.00
2018-06-12T10:24:40.923Z,22.70
2018-06-12T10:27:09.373Z,23.00
2018-06-12T10:29:37.792Z,23.00
2018-06-12T10:32:06.291Z,23.00
2018-06-12T10:34:34.732Z,23.10
2018-06-12T10:37:03.236Z,23.20
2018-06-12T10:39:31.648Z,23.10
2018-06-12T10:42:00.075Z,23.20
2018-06-12T10:46:56.631Z,23.50
2018-06-12T10:51:53.180Z,23.80
2018-06-12T10:56:49.764Z,24.30
2018-06-12T10:59:18.192Z,24.30
2018-06-12T11:01:46.652Z,24.30
2018-06-12T11:04:15.068Z,24.30
2018-06-12T11:09:11.645Z,24.70
2018-06-12T11:11:40.076Z,24.80
2018-06-12T11:14:08.523Z,25.00
2018-06-12T11:16:36.947Z,25.00
2018-06-12T11:19:05.512Z,25.10
2018-06-12T11:21:33.952Z,25.20
2018-06-12T11:24:02.388Z,25.30
2018-06-12T11:26:30.840Z,25.20
2018-06-12T11:28:59.266Z,25.20
2018-06-12T11:33:55.843Z,25.30
2018-06-12T11:36:24.299Z,25.10
2018-06-12T11:38:52.736Z,24.70
2018-06-12T11:41:21.180Z,24.50
2018-06-12T11:43:50.016Z,24.30
2018-06-12T11:46:18.470Z,24.10
2018-06-12T11:48:46.963Z,23.80
2018-06-12T11:51:15.419Z,23.60
2018-06-12T11:53:43.879Z,23.50
2018-06-12T11:58:40.502Z,23.00
2018-06-12T12:01:09.100Z,22.90
2018-06-12T12:03:37.533Z,22.80
2018-06-12T12:06:05.999Z,22.80
2018-06-12T12:08:34.439Z,22.90
2018-06-12T12:11:02.899Z,22.90
2018-06-12T12:13:31.360Z,22.80
2018-06-12T12:15:59.794Z,22.70
2018-06-12T12:18:28.244Z,22.60
2018-06-12T12:20:56.675Z,22.60
2018-06-12T12:23:25.149Z,22.50
2018-06-12T12:25:53.600Z,22.50
2018-06-12T12:28:22.031Z,22.60
2018-06-12T12:30:50.492Z,22.60
2018-06-12T12:33:18.928Z,22.50
2018-06-12T12:35:47.372Z,22.50
2018-06-12T12:38:15.832Z,22.50
2018-06-12T12:43:12.424Z,22.60
2018-06-12T12:45:40.864Z,22.50
2018-06-12T12:48:09.283Z,22.40
2018-06-12T12:50:37.757Z,22.20
2018-06-12T12:53:06.377Z,22.00
2018-06-12T12:55:34.972Z,21.90
2018-06-12T12:58:03.435Z,21.80
2018-06-12T13:00:31.920Z,21.80
2018-06-12T13:03:00.397Z,21.70
2018-06-12T13:05:28.856Z,21.70
2018-06-12T13:07:57.348Z,21.70
2018-06-12T13:10:25.800Z,21.50
2018-06-12T13:12:54.279Z,21.50
2018-06-12T13:17:50.865Z,21.40
2018-06-12T13:20:19.305Z,21.40
2018-06-12T13:22:47.747Z,21.50
2018-06-12T13:25:16.207Z,21.50
2018-06-12T13:27:44.637Z,21.60
2018-06-12T13:30:13.088Z,21.70
2018-06-12T13:32:41.536Z,21.70
2018-06-12T13:35:09.981Z,21.80
2018-06-12T13:37:38.430Z,21.80
2018-06-12T13:40:06.876Z,21.80
2018-06-12T13:42:35.323Z,21.80
2018-06-12T13:45:03.800Z,21.80
2018-06-12T13:47:32.236Z,21.80
2018-06-12T13:50:00.696Z,21.70
2018-06-12T13:52:29.130Z,21.60
2018-06-12T13:54:57.575Z,21.60
2018-06-12T13:57:26.052Z,21.60
2018-06-12T13:59:54.540Z,21.80
2018-06-12T14:02:23.009Z,21.80
2018-06-12T14:04:51.484Z,21.70
2018-06-12T14:07:19.975Z,21.80
2018-06-12T14:09:48.452Z,21.80
2018-06-12T14:12:16.916Z,21.80
2018-06-12T14:14:45.332Z,21.70
2018-06-12T14:17:13.775Z,21.70
2018-06-12T14:19:42.199Z,21.70
2018-06-12T14:22:10.616Z,21.70
2018-06-12T14:24:39.069Z,21.70
2018-06-12T14:27:07.507Z,21.60
2018-06-12T14:32:04.067Z,21.70
2018-06-12T14:34:32.503Z,21.70
2018-06-12T14:37:00.919Z,21.70
2018-06-12T14:41:57.463Z,21.70
2018-06-12T14:46:54.035Z,21.70
2018-06-12T14:49:22.484Z,21.70
2018-06-12T14:51:50.924Z,21.80
2018-06-12T14:54:19.352Z,21.80
2018-06-12T14:56:47.796Z,21.90
2018-06-12T14:59:16.220Z,21.90
2018-06-12T15:01:44.644Z,22.00
2018-06-12T15:04:13.092Z,22.00
2018-06-12T15:09:09.635Z,21.90
2018-06-12T15:11:38.060Z,21.80
2018-06-12T15:14:06.588Z,21.80
2018-06-12T15:16:35.009Z,21.90
2018-06-12T15:19:03.436Z,22.00
2018-06-12T15:21:31.883Z,22.20
2018-06-12T15:24:00.348Z,22.50
2018-06-12T15:26:28.788Z,22.50
2018-06-12T15:28:57.236Z,22.50
2018-06-12T15:31:25.691Z,22.40
2018-06-12T15:33:54.181Z,22.30
2018-06-12T15:36:22.628Z,22.20
2018-06-12T15:38:51.082Z,22.10
2018-06-12T15:41:19.652Z,22.00
2018-06-12T15:43:48.147Z,21.90
2018-06-12T15:46:16.616Z,21.90
2018-06-12T15:48:45.066Z,21.90
2018-06-12T15:51:13.553Z,21.80
2018-06-12T15:53:41.980Z,21.80
2018-06-12T15:56:10.480Z,21.80
2018-06-12T15:58:38.872Z,21.80
2018-06-12T16:01:07.340Z,21.80
2018-06-12T16:06:03.911Z,21.90
2018-06-12T16:08:32.356Z,22.00
2018-06-12T16:11:00.783Z,22.00
2018-06-12T16:13:29.224Z,22.00
2018-06-12T16:15:57.636Z,22.00
2018-06-12T16:18:26.084Z,21.90
2018-06-12T16:20:54.535Z,21.90
2018-06-12T16:23:22.975Z,21.90
2018-06-12T16:28:19.511Z,21.90
2018-06-12T16:30:47.960Z,21.80
2018-06-12T16:33:16.391Z,21.80
2018-06-12T16:35:44.846Z,21.80
2018-06-12T16:38:13.272Z,21.70
2018-06-12T16:40:41.715Z,21.50
2018-06-12T16:43:10.139Z,21.40
2018-06-12T16:45:38.592Z,21.30
2018-06-12T16:50:35.175Z,21.10
2018-06-12T16:53:03.600Z,21.00
2018-06-12T16:55:32.048Z,20.90
2018-06-12T16:58:00.503Z,20.80
2018-06-12T17:00:28.937Z,20.80
2018-06-12T17:02:57.396Z,20.70
2018-06-12T17:05:25.888Z,20.70
2018-06-12T17:07:54.340Z,20.70
2018-06-12T17:10:22.834Z,20.60
2018-06-12T17:15:19.372Z,20.60
2018-06-12T17:17:47.829Z,20.70
2018-06-12T17:20:16.308Z,20.70
2018-06-12T17:25:12.867Z,20.70
2018-06-12T17:30:09.436Z,20.70
2018-06-12T17:32:37.864Z,20.80
2018-06-12T17:35:06.318Z,20.90
2018-06-12T17:37:34.774Z,20.90
2018-06-12T17:40:03.212Z,20.90
2018-06-12T17:44:59.787Z,20.90
2018-06-12T17:49:56.345Z,20.70
2018-06-12T17:54:52.933Z,20.60
2018-06-12T17:57:21.348Z,20.50
2018-06-12T17:59:49.807Z,20.40
2018-06-12T18:02:18.227Z,20.40
2018-06-12T18:04:46.675Z,20.40
2018-06-12T18:07:15.113Z,20.40
2018-06-12T18:09:43.572Z,20.30
2018-06-12T18:12:11.983Z,20.20
2018-06-12T18:14:40.421Z,20.20
2018-06-12T18:17:08.879Z,20.10
2018-06-12T18:19:37.300Z,20.10
2018-06-12T18:22:05.826Z,20.10
2018-06-12T18:24:34.300Z,20.10
2018-06-12T18:27:02.735Z,20.00
2018-06-12T18:29:31.155Z,19.90
2018-06-12T18:31:59.607Z,19.90
2018-06-12T18:34:28.023Z,19.90
2018-06-12T18:36:56.456Z,19.90
2018-06-12T18:39:24.904Z,19.80
2018-06-12T18:41:53.334Z,19.70
2018-06-12T18:44:21.776Z,19.70
2018-06-12T18:46:50.206Z,19.70
2018-06-12T18:49:18.651Z,19.60
2018-06-12T18:51:47.117Z,19.60
2018-06-12T18:54:15.535Z,19.60
2018-06-12T18:56:44.360Z,19.50
2018-06-12T19:01:40.920Z,19.50
2018-06-12T19:06:37.559Z,19.40
2018-06-12T19:09:07.025Z,19.40
2018-06-12T19:11:35.492Z,19.30
2018-06-12T19:14:03.978Z,19.30
2018-06-12T19:16:32.408Z,19.30
2018-06-12T19:19:00.843Z,19.20
2018-06-12T19:21:29.263Z,19.30
2018-06-12T19:23:57.712Z,19.20
2018-06-12T19:26:26.220Z,19.20
2018-06-12T19:28:54.636Z,19.10
2018-06-12T19:31:23.088Z,19.10
2018-06-12T19:33:51.928Z,19.10
2018-06-12T19:36:20.360Z,19.10
2018-06-12T19:38:48.812Z,19.00
2018-06-12T19:41:17.236Z,19.00
2018-06-12T19:43:45.676Z,19.00
2018-06-12T19:46:14.103Z,19.00
2018-06-12T19:48:42.551Z,18.90
2018-06-12T19:51:11.033Z,18.90
2018-06-12T19:53:39.504Z,18.80
2018-06-12T19:56:07.944Z,18.80
2018-06-12T19:58:36.369Z,18.80
2018-06-12T20:01:04.898Z,18.70
2018-06-12T20:03:33.267Z,18.80
2018-06-12T20:06:01.712Z,18.80
2018-06-12T20:08:30.177Z,18.80
2018-06-12T20:10:58.636Z,18.80
2018-06-12T20:15:55.187Z,18.70
2018-06-12T20:18:23.628Z,18.80
2018-06-12T20:20:52.051Z,18.80
2018-06-12T20:25:48.612Z,18.80
2018-06-12T20:28:17.057Z,18.70
2018-06-12T20:30:45.499Z,18.70
2018-06-12T20:33:13.970Z,18.70
2018-06-12T20:35:42.388Z,18.70
2018-06-12T20:38:10.823Z,18.70
2018-06-12T20:40:39.253Z,18.70
2018-06-12T20:43:07.684Z,18.60
2018-06-12T20:45:36.155Z,18.60
2018-06-12T20:48:04.638Z,18.60
2018-06-12T20:50:33.091Z,18.60
2018-06-12T20:53:01.512Z,18.60
2018-06-12T20:55:29.961Z,18.50
2018-06-12T21:00:26.528Z,18.50
2018-06-12T21:02:54.956Z,18.50
2018-06-12T21:05:23.391Z,18.50
2018-06-12T21:07:51.852Z,18.50
2018-06-12T21:12:48.421Z,18.40
2018-06-12T21:15:16.852Z,18.40
2018-06-12T21:17:45.299Z,18.40
2018-06-12T21:20:13.728Z,18.40
2018-06-12T21:22:42.178Z,18.40
2018-06-12T21:25:10.603Z,18.30
2018-06-12T21:27:39.049Z,18.30
2018-06-12T21:30:07.508Z,18.30
2018-06-12T21:32:35.932Z,18.30
2018-06-12T21:35:04.431Z,18.30
2018-06-12T21:37:32.843Z,18.20
2018-06-12T21:40:01.290Z,18.10
2018-06-12T21:42:29.712Z,18.10
2018-06-12T21:44:58.151Z,18.00
2018-06-12T21:47:26.572Z,18.00
2018-06-12T21:49:55.016Z,17.90
2018-06-12T21:52:23.432Z,17.90
2018-06-12T21:54:51.847Z,17.90
2018-06-12T21:57:20.287Z,17.80
2018-06-12T21:59:48.716Z,17.80
2018-06-12T22:02:17.183Z,17.70
2018-06-12T22:04:45.611Z,17.70
2018-06-12T22:07:14.060Z,17.60
2018-06-12T22:09:42.486Z,17.50
2018-06-12T22:12:10.944Z,17.40
2018-06-12T22:14:39.376Z,17.40
2018-06-12T22:17:07.849Z,17.30
2018-06-12T22:19:36.268Z,17.30
2018-06-12T22:22:04.691Z,17.20
2018-06-12T22:24:33.140Z,17.10
2018-06-12T22:27:01.569Z,17.10
2018-06-12T22:29:30.036Z,17.00
2018-06-12T22:31:58.465Z,17.00
2018-06-12T22:34:26.920Z,16.90
2018-06-12T22:36:55.350Z,16.80
2018-06-12T22:39:23.799Z,16.80
2018-06-12T22:41:52.215Z,16.80
2018-06-12T22:46:48.779Z,16.60
2018-06-12T22:51:45.626Z,16.60
2018-06-12T22:54:14.089Z,16.60
2018-06-12T22:56:42.577Z,16.60
2018-06-12T22:59:11.037Z,16.70
2018-06-12T23:01:39.544Z,16.70
2018-06-12T23:04:08.029Z,16.70
2018-06-12T23:06:36.506Z,16.70
2018-06-12T23:09:07.565Z,16.70
2018-06-12T23:14:04.404Z,16.80
2018-06-12T23:16:32.864Z,16.80
2018-06-12T23:19:01.284Z,16.80
2018-06-12T23:26:35.544Z,16.90
2018-06-12T23:31:32.091Z,16.90
2018-06-12T23:34:00.543Z,17.00
2018-06-12T23:36:29.287Z,17.00
2018-06-12T23:38:57.732Z,17.00
2018-06-12T23:41:26.161Z,17.00
2018-06-12T23:43:54.984Z,17.00
2018-06-12T23:46:23.437Z,17.00
2018-06-12T23:48:52.151Z,17.00
2018-06-12T23:51:20.592Z,17.00
2018-06-12T23:53:49.009Z,17.00
2018-06-12T23:56:17.452Z,17.00
2018-06-12T23:58:45.871Z,17.00
